Needmore, Kentucky
Current Conditions -  °F | °C
As of 11:15 PM on Tuesday 21 Oct 2014 (Local Time) from KFGX Reporting Station
Scattered Clouds Scattered Clouds  
Wind Chill:   Ceiling: Unl
Heat Index:   Visibility: 10mi
Dew Point:   Wind: 5mph
Humidity: 85%   Direction: 10°N
Pressure: 30.17"   Gusts: NA
Location:  38.4934°N, 83.7754°W
Report Text: KFGX 220315Z AUTO 01004KT 10SM SCT036 07/05 A3017 RMK AO2 T00700046
Loading
Personal Weather Stations






























Interactive Weather Map
Tropical Storm Tracking
New forecast layout! Learn more

10-Day Weather Forecast

Advertisements
Track Severe Weather on mobile